createdAt,value
2023-09-10T00:01:28.957Z,95.66
2023-09-10T00:04:33.891Z,95.96
2023-09-10T00:07:36.264Z,95.68
2023-09-10T00:10:39.787Z,95.29
2023-09-10T00:13:42.126Z,95.15
2023-09-10T00:16:44.441Z,94.69
2023-09-10T00:19:47.685Z,94.54
2023-09-10T00:22:50.042Z,94.60
2023-09-10T00:25:55.503Z,94.33
2023-09-10T00:28:57.894Z,95.14
2023-09-10T00:32:00.338Z,95.64
2023-09-10T00:35:02.859Z,95.48
2023-09-10T00:38:05.394Z,95.35
2023-09-10T00:41:09.029Z,94.68
2023-09-10T00:44:11.465Z,94.92
2023-09-10T00:47:14.484Z,95.26
2023-09-10T00:50:18.012Z,94.92
2023-09-10T00:53:21.121Z,95.68
2023-09-10T00:56:25.617Z,96.52
2023-09-10T00:59:30.034Z,97.12
2023-09-10T01:02:32.527Z,97.13
2023-09-10T01:05:36.880Z,96.55
2023-09-10T01:08:39.318Z,97.43
2023-09-10T01:12:10.521Z,96.99
2023-09-10T01:15:38.106Z,97.28
2023-09-10T01:18:50.398Z,96.82
2023-09-10T01:22:04.092Z,96.22
2023-09-10T01:25:07.394Z,96.39
2023-09-10T01:28:09.736Z,96.93
2023-09-10T01:31:12.159Z,96.43
2023-09-10T01:34:17.796Z,95.88
2023-09-10T01:37:27.480Z,95.99
2023-09-10T01:40:36.149Z,96.14
2023-09-10T01:43:39.008Z,96.30
2023-09-10T01:46:43.032Z,96.48
2023-09-10T01:49:46.052Z,96.22
2023-09-10T01:52:48.383Z,96.37
2023-09-10T01:55:50.762Z,95.71
2023-09-10T01:58:53.231Z,95.87
2023-09-10T02:01:55.777Z,96.38
2023-09-10T02:04:59.033Z,97.16
2023-09-10T02:08:01.391Z,97.57
2023-09-10T02:11:10.637Z,98.05
2023-09-10T02:14:13.049Z,98.63
2023-09-10T02:17:21.450Z,98.41
2023-09-10T02:20:24.652Z,99.14
2023-09-10T02:23:27.170Z,98.11
2023-09-10T02:26:29.515Z,97.32
2023-09-10T02:29:31.796Z,97.86
2023-09-10T02:32:34.501Z,98.11
2023-09-10T02:35:36.793Z,97.71
2023-09-10T02:38:39.501Z,97.39
2023-09-10T02:41:42.090Z,97.17
2023-09-10T02:44:44.965Z,96.97
2023-09-10T02:47:47.277Z,97.03
2023-09-10T02:50:49.603Z,96.86
2023-09-10T02:53:51.853Z,96.20
2023-09-10T02:56:54.110Z,96.29
2023-09-10T02:59:56.494Z,95.97
2023-09-10T03:02:59.328Z,96.26
2023-09-10T03:06:02.129Z,96.47
2023-09-10T03:09:04.857Z,95.70
2023-09-10T03:12:26.632Z,96.10
2023-09-10T03:15:31.004Z,96.66
2023-09-10T03:18:33.509Z,96.77
2023-09-10T03:21:39.447Z,97.14
2023-09-10T03:24:43.127Z,96.84
2023-09-10T03:27:45.438Z,96.45
2023-09-10T03:30:47.722Z,96.04
2023-09-10T03:33:50.388Z,96.56
2023-09-10T03:36:52.782Z,96.11
2023-09-10T03:39:55.042Z,96.39
2023-09-10T03:42:57.350Z,95.73
2023-09-10T03:45:59.683Z,95.71
2023-09-10T03:49:01.992Z,96.20
2023-09-10T03:52:18.456Z,96.22
2023-09-10T03:55:20.819Z,97.98
2023-09-10T03:58:23.152Z,97.23
2023-09-10T04:01:25.595Z,95.74
2023-09-10T04:04:29.012Z,96.32
2023-09-10T04:07:31.743Z,97.25
2023-09-10T04:10:34.142Z,95.98
2023-09-10T04:13:38.472Z,95.66
2023-09-10T04:16:40.846Z,95.57
2023-09-10T04:19:43.321Z,95.84
2023-09-10T04:22:45.857Z,95.47
2023-09-10T04:25:51.390Z,95.69
2023-09-10T04:28:53.790Z,95.22
2023-09-10T04:31:56.116Z,94.81
2023-09-10T04:34:58.637Z,95.98
2023-09-10T04:38:00.963Z,96.15
2023-09-10T04:41:03.601Z,95.60
2023-09-10T04:44:07.342Z,95.19
2023-09-10T04:47:10.624Z,95.27
2023-09-10T04:50:13.996Z,94.90
2023-09-10T04:53:17.904Z,95.18
2023-09-10T04:56:20.376Z,95.38
2023-09-10T04:59:23.139Z,95.44
2023-09-10T05:02:25.933Z,95.04
2023-09-10T05:05:28.353Z,94.58
2023-09-10T05:08:30.665Z,94.75
2023-09-10T05:11:33.030Z,95.85
2023-09-10T05:14:35.294Z,96.74
2023-09-10T05:17:38.784Z,96.98
2023-09-10T05:20:42.008Z,96.05
2023-09-10T05:23:44.610Z,95.28
2023-09-10T05:26:47.035Z,94.77
2023-09-10T05:29:49.313Z,94.07
2023-09-10T05:32:51.733Z,93.89
2023-09-10T05:35:58.850Z,94.17
2023-09-10T05:39:03.685Z,93.89
2023-09-10T05:42:06.110Z,93.43
2023-09-10T05:45:08.745Z,92.14
2023-09-10T05:48:11.082Z,91.63
2023-09-10T05:51:13.470Z,90.65
2023-09-10T05:54:17.809Z,90.17
2023-09-10T05:57:21.390Z,89.59
2023-09-10T06:00:24.032Z,89.23
2023-09-10T06:03:26.875Z,88.06
2023-09-10T06:06:29.341Z,86.97
2023-09-10T06:09:32.871Z,85.71
2023-09-10T06:12:36.467Z,84.57
2023-09-10T06:15:39.927Z,84.07
2023-09-10T06:18:42.267Z,83.52
2023-09-10T06:21:44.770Z,83.07
2023-09-10T06:24:47.585Z,82.48
2023-09-10T06:27:49.959Z,81.61
2023-09-10T06:30:52.917Z,80.12
2023-09-10T06:33:55.721Z,78.96
2023-09-10T06:36:59.276Z,76.96
2023-09-10T06:40:02.653Z,76.21
2023-09-10T06:43:05.594Z,73.64
2023-09-10T06:46:15.176Z,73.01
2023-09-10T06:49:17.457Z,72.34
2023-09-10T06:52:19.739Z,71.97
2023-09-10T06:55:22.038Z,70.52
2023-09-10T06:58:24.570Z,69.43
2023-09-10T07:01:26.880Z,68.23
2023-09-10T07:04:29.322Z,67.89
2023-09-10T07:07:31.608Z,66.56
2023-09-10T07:10:34.584Z,65.26
2023-09-10T07:13:39.753Z,63.82
2023-09-10T07:16:42.047Z,62.44
2023-09-10T07:19:44.511Z,62.69
2023-09-10T07:22:46.842Z,62.43
2023-09-10T07:25:49.169Z,60.48
2023-09-10T07:28:51.897Z,61.84
2023-09-10T07:31:54.753Z,61.13
2023-09-10T07:34:57.102Z,60.42
2023-09-10T07:37:59.425Z,60.83
2023-09-10T07:41:01.797Z,59.81
2023-09-10T07:44:04.418Z,60.75
2023-09-10T07:47:06.807Z,59.63
2023-09-10T07:50:10.026Z,60.73
2023-09-10T07:53:12.383Z,61.36
2023-09-10T07:56:14.716Z,62.80
2023-09-10T07:59:17.034Z,62.62
2023-09-10T08:02:19.389Z,63.11
2023-09-10T08:05:21.769Z,61.92
2023-09-10T08:08:24.298Z,63.47
2023-09-10T08:11:26.643Z,63.74
2023-09-10T08:14:29.031Z,63.71
2023-09-10T08:17:31.564Z,63.04
2023-09-10T08:20:33.877Z,63.81
2023-09-10T08:23:36.136Z,64.64
2023-09-10T08:26:38.445Z,64.32
2023-09-10T08:29:40.705Z,64.95
2023-09-10T08:32:46.887Z,65.07
2023-09-10T08:35:50.512Z,66.17
2023-09-10T08:38:54.731Z,64.90
2023-09-10T08:42:07.072Z,64.55
2023-09-10T08:45:11.504Z,63.81
2023-09-10T08:48:15.745Z,63.84
2023-09-10T08:51:19.385Z,62.93
2023-09-10T08:54:21.717Z,62.04
2023-09-10T08:57:25.480Z,59.99
2023-09-10T09:00:29.723Z,59.05
2023-09-10T09:03:33.687Z,59.50
2023-09-10T09:06:38.471Z,59.85
2023-09-10T09:09:46.028Z,58.01
2023-09-10T09:12:50.817Z,57.15
2023-09-10T09:15:53.895Z,56.78
2023-09-10T09:18:56.613Z,56.77
2023-09-10T09:22:00.466Z,58.31
2023-09-10T09:25:04.446Z,59.51
2023-09-10T09:28:07.080Z,59.70
2023-09-10T09:31:11.458Z,59.32
2023-09-10T09:34:13.785Z,58.88
2023-09-10T09:37:20.538Z,58.21
2023-09-10T09:40:23.028Z,58.04
2023-09-10T09:43:25.506Z,58.99
2023-09-10T09:46:34.865Z,58.79
2023-09-10T09:49:46.659Z,59.42
2023-09-10T09:52:52.427Z,59.44
2023-09-10T09:56:04.375Z,58.21
2023-09-10T09:59:07.412Z,55.97
2023-09-10T10:02:15.768Z,58.76
2023-09-10T10:05:25.162Z,58.37
2023-09-10T10:08:30.453Z,57.08
2023-09-10T10:11:33.496Z,56.54
2023-09-10T10:14:43.215Z,55.23
2023-09-10T10:17:46.463Z,55.00
2023-09-10T10:20:51.032Z,54.73
2023-09-10T10:23:57.473Z,56.05
2023-09-10T10:27:02.284Z,54.63
2023-09-10T10:30:07.218Z,52.74
2023-09-10T10:33:13.088Z,51.72
2023-09-10T10:36:25.823Z,49.21
2023-09-10T10:39:42.885Z,45.96
2023-09-10T10:42:53.898Z,44.29
2023-09-10T10:45:58.393Z,43.65
2023-09-10T10:49:04.393Z,42.96
2023-09-10T10:52:10.462Z,41.55
2023-09-10T10:55:13.514Z,40.68
2023-09-10T10:58:16.125Z,40.00
2023-09-10T11:01:18.585Z,39.70
2023-09-10T11:04:21.046Z,41.00
2023-09-10T11:07:27.988Z,39.18
2023-09-10T11:10:30.175Z,37.85
2023-09-10T11:13:33.600Z,37.48
2023-09-10T11:16:36.719Z,36.90
2023-09-10T11:19:47.033Z,36.16
2023-09-10T11:23:08.595Z,37.55
2023-09-10T11:26:13.818Z,36.77
2023-09-10T11:29:20.264Z,36.56
2023-09-10T11:32:22.701Z,35.91
2023-09-10T11:35:25.230Z,36.69
2023-09-10T11:38:30.318Z,37.72
2023-09-10T11:41:33.451Z,37.27
2023-09-10T11:44:36.383Z,36.84
2023-09-10T11:47:46.587Z,36.13
2023-09-10T11:50:52.077Z,36.26
2023-09-10T11:53:54.626Z,36.83
2023-09-10T11:56:58.548Z,36.94
2023-09-10T12:00:01.252Z,37.13
2023-09-10T12:03:14.731Z,36.86
2023-09-10T12:06:17.070Z,35.53
2023-09-10T12:09:20.039Z,34.96
2023-09-10T12:12:26.352Z,34.97
2023-09-10T12:15:30.643Z,34.81
2023-09-10T12:18:33.336Z,35.61
2023-09-10T12:21:35.681Z,35.65
2023-09-10T12:24:39.738Z,35.27
2023-09-10T12:27:42.829Z,35.49
2023-09-10T12:30:45.206Z,35.07
2023-09-10T12:33:47.526Z,35.43
2023-09-10T12:36:52.909Z,36.30
2023-09-10T12:39:55.901Z,35.39
2023-09-10T12:42:58.145Z,36.04
2023-09-10T12:46:00.459Z,35.58
2023-09-10T12:49:05.710Z,34.72
2023-09-10T12:52:08.418Z,35.10
2023-09-10T12:55:10.706Z,35.48
2023-09-10T12:58:19.460Z,35.18
2023-09-10T13:01:26.577Z,35.71
2023-09-10T13:04:29.293Z,35.39
2023-09-10T13:07:31.555Z,34.81
2023-09-10T13:10:33.818Z,34.97
2023-09-10T13:13:36.100Z,33.81
2023-09-10T13:16:38.421Z,34.68
2023-09-10T13:19:40.745Z,34.63
2023-09-10T13:22:45.458Z,34.38
2023-09-10T13:25:48.097Z,33.79
2023-09-10T13:28:50.382Z,34.26
2023-09-10T13:31:53.190Z,35.53
2023-09-10T13:34:55.531Z,34.68
2023-09-10T13:37:57.841Z,34.03
2023-09-10T13:41:00.133Z,33.99
2023-09-10T13:44:03.536Z,34.08
2023-09-10T13:47:06.018Z,34.13
2023-09-10T13:50:08.991Z,34.05
2023-09-10T13:53:11.457Z,34.27
2023-09-10T13:56:13.835Z,34.62
2023-09-10T13:59:16.256Z,34.30
2023-09-10T14:02:18.632Z,34.21
2023-09-10T14:05:20.942Z,34.03
2023-09-10T14:08:23.290Z,35.12
2023-09-10T14:11:25.886Z,35.84
2023-09-10T14:14:28.202Z,36.16
2023-09-10T14:17:30.612Z,35.52
2023-09-10T14:20:33.081Z,35.59
2023-09-10T14:23:35.534Z,35.77
2023-09-10T14:26:37.872Z,35.57
2023-09-10T14:29:40.268Z,36.17
2023-09-10T14:32:42.999Z,36.02
2023-09-10T14:35:45.616Z,36.55
2023-09-10T14:38:47.917Z,35.67
2023-09-10T14:41:50.237Z,36.95
2023-09-10T14:44:52.484Z,38.60
2023-09-10T14:47:54.903Z,38.72
2023-09-10T14:50:57.191Z,39.00
2023-09-10T14:53:59.664Z,38.74
2023-09-10T14:57:02.753Z,39.16
2023-09-10T15:00:05.815Z,39.46
2023-09-10T15:03:08.827Z,40.11
2023-09-10T15:06:11.234Z,40.00
2023-09-10T15:09:13.638Z,40.36
2023-09-10T15:12:16.298Z,41.50
2023-09-10T15:15:18.628Z,42.06
2023-09-10T15:18:22.658Z,42.93
2023-09-10T15:21:25.196Z,43.50
2023-09-10T15:24:27.474Z,43.66
2023-09-10T15:27:29.993Z,44.37
2023-09-10T15:30:33.346Z,45.55
2023-09-10T15:33:35.640Z,45.92
2023-09-10T15:36:38.584Z,45.88
2023-09-10T15:39:40.820Z,46.49
2023-09-10T15:42:43.136Z,47.15
2023-09-10T15:45:45.429Z,48.41
2023-09-10T15:48:47.702Z,50.55
2023-09-10T15:51:50.505Z,53.03
2023-09-10T15:54:52.898Z,54.76
2023-09-10T15:57:55.264Z,56.19
2023-09-10T16:00:57.516Z,57.42
2023-09-10T16:03:59.873Z,58.23
2023-09-10T16:07:03.327Z,59.73
2023-09-10T16:10:06.782Z,60.07
2023-09-10T16:13:09.230Z,60.61
2023-09-10T16:16:11.688Z,61.35
2023-09-10T16:19:13.951Z,62.44
2023-09-10T16:22:19.709Z,63.86
2023-09-10T16:25:22.005Z,64.74
2023-09-10T16:28:24.331Z,64.68
2023-09-10T16:31:26.643Z,65.37
2023-09-10T16:34:29.371Z,66.07
2023-09-10T16:37:31.684Z,66.60
2023-09-10T16:40:33.942Z,67.34
2023-09-10T16:43:36.195Z,68.99
2023-09-10T16:46:38.584Z,71.19
2023-09-10T16:49:42.892Z,72.99
2023-09-10T16:52:45.144Z,73.04
2023-09-10T16:55:54.327Z,73.19
2023-09-10T16:58:59.661Z,73.05
2023-09-10T17:02:02.090Z,73.30
2023-09-10T17:05:04.708Z,74.11
2023-09-10T17:08:07.253Z,74.83
2023-09-10T17:11:09.707Z,74.47
2023-09-10T17:14:12.003Z,75.06
2023-09-10T17:17:14.403Z,75.51
2023-09-10T17:20:16.933Z,76.28
2023-09-10T17:23:19.286Z,76.84
2023-09-10T17:26:21.859Z,77.54
2023-09-10T17:29:24.260Z,77.90
2023-09-10T17:32:26.649Z,78.95
2023-09-10T17:35:29.170Z,79.37
2023-09-10T17:38:31.562Z,79.95
2023-09-10T17:41:33.939Z,81.28
2023-09-10T17:44:37.579Z,82.84
2023-09-10T17:47:40.678Z,83.36
2023-09-10T17:50:43.096Z,84.44
2023-09-10T17:53:46.374Z,84.64
2023-09-10T17:56:48.774Z,85.52
2023-09-10T17:59:51.400Z,86.15
2023-09-10T18:02:53.815Z,86.60
2023-09-10T18:05:56.184Z,86.83
2023-09-10T18:09:03.336Z,87.42
2023-09-10T18:12:06.032Z,88.09
2023-09-10T18:15:09.527Z,87.38
2023-09-10T18:18:11.833Z,87.47
2023-09-10T18:21:14.143Z,88.74
2023-09-10T18:24:16.655Z,89.15
2023-09-10T18:27:18.889Z,89.08
2023-09-10T18:30:21.161Z,89.41
2023-09-10T18:33:23.545Z,89.11
2023-09-10T18:36:25.904Z,89.02
2023-09-10T18:39:28.735Z,89.24
2023-09-10T18:42:31.081Z,90.04
2023-09-10T18:45:34.070Z,90.56
2023-09-10T18:48:36.346Z,91.13
2023-09-10T18:52:12.048Z,91.75
2023-09-10T18:55:15.149Z,91.43
2023-09-10T18:58:17.562Z,93.14
2023-09-10T19:01:20.386Z,91.22
2023-09-10T19:04:22.983Z,92.82
2023-09-10T19:07:25.367Z,94.46
2023-09-10T19:10:27.730Z,94.82
2023-09-10T19:13:29.986Z,93.12
2023-09-10T19:16:32.276Z,92.12
2023-09-10T19:19:34.859Z,92.30
2023-09-10T19:22:37.172Z,92.01
2023-09-10T19:25:39.670Z,91.49
2023-09-10T19:28:41.943Z,90.36
2023-09-10T19:31:44.322Z,90.28
2023-09-10T19:34:47.772Z,90.90
2023-09-10T19:37:53.726Z,91.12
2023-09-10T19:40:56.058Z,91.25
2023-09-10T19:44:00.163Z,91.23
2023-09-10T19:47:02.441Z,91.02
2023-09-10T19:50:05.034Z,91.13
2023-09-10T19:53:07.324Z,91.15
2023-09-10T19:56:14.027Z,91.44
2023-09-10T19:59:16.653Z,92.16
2023-09-10T20:02:18.960Z,91.68
2023-09-10T20:05:21.750Z,91.14
2023-09-10T20:08:24.932Z,90.29
2023-09-10T20:11:27.864Z,90.35
2023-09-10T20:14:32.841Z,91.13
2023-09-10T20:17:35.235Z,92.22
2023-09-10T20:20:38.446Z,93.35
2023-09-10T20:23:42.172Z,93.37
2023-09-10T20:26:44.768Z,92.76
2023-09-10T20:29:47.158Z,91.98
2023-09-10T20:32:49.483Z,92.98
2023-09-10T20:35:51.927Z,93.58
2023-09-10T20:38:54.244Z,93.89
2023-09-10T20:41:57.060Z,93.34
2023-09-10T20:44:59.330Z,93.33
2023-09-10T20:48:04.590Z,93.93
2023-09-10T20:51:08.475Z,94.34
2023-09-10T20:54:10.823Z,94.41
2023-09-10T20:57:13.113Z,94.92
2023-09-10T21:00:15.542Z,94.91
2023-09-10T21:03:29.028Z,93.81
2023-09-10T21:06:32.717Z,93.15
2023-09-10T21:09:35.112Z,94.09
2023-09-10T21:12:37.389Z,94.83
2023-09-10T21:15:39.680Z,94.62
2023-09-10T21:18:41.927Z,94.79
2023-09-10T21:21:44.206Z,94.99
2023-09-10T21:24:47.480Z,94.97
2023-09-10T21:27:49.799Z,95.36
2023-09-10T21:30:52.045Z,95.33
2023-09-10T21:33:54.430Z,95.12
2023-09-10T21:36:56.780Z,94.41
2023-09-10T21:39:59.022Z,94.85
2023-09-10T21:43:01.278Z,94.12
2023-09-10T21:46:08.446Z,93.42
2023-09-10T21:49:11.047Z,92.97
2023-09-10T21:52:14.611Z,93.26
2023-09-10T21:55:16.951Z,93.03
2023-09-10T21:58:19.241Z,94.14
2023-09-10T22:01:21.618Z,94.23
2023-09-10T22:04:24.634Z,93.35
2023-09-10T22:07:26.964Z,94.38
2023-09-10T22:10:29.283Z,93.48
2023-09-10T22:13:32.860Z,95.19
2023-09-10T22:16:36.048Z,95.02
2023-09-10T22:19:38.356Z,95.38
2023-09-10T22:22:40.726Z,95.73
2023-09-10T22:25:43.124Z,96.60
2023-09-10T22:28:47.002Z,96.07
2023-09-10T22:31:49.340Z,95.97
2023-09-10T22:34:51.680Z,94.79
2023-09-10T22:37:54.152Z,94.97
2023-09-10T22:40:56.478Z,95.75
2023-09-10T22:43:58.785Z,95.75
2023-09-10T22:47:01.060Z,94.72
2023-09-10T22:50:05.333Z,95.15
2023-09-10T22:53:07.640Z,95.04
2023-09-10T22:56:09.879Z,95.53
2023-09-10T22:59:12.180Z,95.79
2023-09-10T23:02:14.614Z,96.81
2023-09-10T23:05:17.101Z,98.08
2023-09-10T23:08:19.451Z,97.16
2023-09-10T23:11:21.773Z,95.80
2023-09-10T23:14:25.267Z,94.98
2023-09-10T23:17:27.672Z,95.68
2023-09-10T23:20:30.029Z,95.57
2023-09-10T23:23:32.425Z,95.77
2023-09-10T23:26:34.782Z,95.60
2023-09-10T23:29:37.153Z,95.61
2023-09-10T23:32:39.504Z,95.40
2023-09-10T23:35:41.943Z,97.15
2023-09-10T23:38:44.582Z,96.36
2023-09-10T23:41:47.138Z,95.92
2023-09-10T23:44:49.459Z,95.57
2023-09-10T23:47:51.873Z,94.79
2023-09-10T23:50:54.576Z,95.53
2023-09-10T23:53:56.826Z,95.25
2023-09-10T23:56:59.466Z,95.12
